Time;durP1;ratioP1;P1;durP2;ratioP2;P2;SDS_P1;SDS_P2;PMS_P1;PMS_P2;Temp;Humidity;BMP_temperature;BMP_pressure;BME280_temperature;BME280_humidity;BME280_pressure;Samples;Min_cycle;Max_cycle;Signal;HPM_P1;HPM_P2
2022/06/14 00:01:39;;;;;;;;;7.00;6.00;;;;;35.29;19.74;101744.00;5097571;27;45513;-77
2022/06/14 00:04:04;;;;;;;;;6.00;4.67;;;;;35.13;19.83;101716.63;5096668;27;45519;-77
2022/06/14 00:06:32;;;;;;;;;6.67;5.00;;;;;35.13;19.69;101722.16;5096288;27;46052;-77
2022/06/14 00:08:58;;;;;;;;;7.00;5.67;;;;;35.12;20.12;101736.91;5096532;27;45354;-77
2022/06/14 00:11:37;;;;;;;;;5.00;4.00;;;;;35.12;19.88;101723.13;5096162;27;45487;-77
2022/06/14 00:14:04;;;;;;;;;7.33;5.33;;;;;35.14;19.91;101740.47;5095469;27;45361;-77
2022/06/14 00:16:32;;;;;;;;;7.33;6.67;;;;;35.08;20.05;101743.63;5096144;27;45567;-77
2022/06/14 00:18:57;;;;;;;;;4.33;4.33;;;;;34.94;20.06;101731.72;5096279;27;45484;-77
2022/06/14 00:21:24;;;;;;;;;5.67;5.67;;;;;34.99;20.06;101725.88;5096523;27;45530;-77
2022/06/14 00:23:50;;;;;;;;;5.67;5.67;;;;;34.99;20.14;101734.13;5096126;27;45487;-77
2022/06/14 00:26:16;;;;;;;;;6.00;5.67;;;;;34.92;20.04;101721.78;5094531;27;47155;-77
2022/06/14 00:28:43;;;;;;;;;5.67;4.67;;;;;34.81;20.36;101722.50;5095820;27;45307;-77
2022/06/14 00:31:21;;;;;;;;;5.67;5.00;;;;;34.74;20.59;101726.63;5096449;27;45470;-77
2022/06/14 00:33:46;;;;;;;;;5.33;4.67;;;;;34.67;20.38;101726.16;5096196;27;45342;-77
2022/06/14 00:36:38;;;;;;;;;5.00;5.00;;;;;34.73;20.30;101735.88;5096085;27;45638;-77
2022/06/14 00:39:06;;;;;;;;;7.00;5.33;;;;;34.54;20.49;101731.63;5093888;27;45415;-77
2022/06/14 00:41:37;;;;;;;;;6.67;6.67;;;;;34.61;20.66;101741.25;5095677;27;45422;-77
2022/06/14 00:44:05;;;;;;;;;6.00;6.00;;;;;34.61;20.91;101723.84;5096177;27;45461;-77
2022/06/14 00:46:38;;;;;;;;;8.00;7.00;;;;;34.62;20.33;101728.38;5095759;27;46161;-77
2022/06/14 00:49:13;;;;;;;;;6.67;6.33;;;;;34.61;20.64;101732.09;5095952;27;45521;-77
2022/06/14 00:51:50;;;;;;;;;7.00;5.00;;;;;34.40;20.60;101704.13;5095851;27;45340;-77
2022/06/14 00:54:26;;;;;;;;;6.67;6.67;;;;;34.48;20.46;101721.03;5094357;27;45567;-77
2022/06/14 00:57:13;;;;;;;;;5.00;5.00;;;;;34.34;20.54;101713.69;5095691;27;45544;-77
2022/06/14 00:59:45;;;;;;;;;7.67;6.00;;;;;34.43;20.63;101740.63;5094532;27;46251;-77
2022/06/14 01:02:19;;;;;;;;;7.00;4.00;;;;;34.35;20.91;101743.00;5094709;27;45485;-77
2022/06/14 01:04:45;;;;;;;;;6.00;6.00;;;;;34.30;20.83;101728.66;5098015;27;45427;-78
2022/06/14 01:07:20;;;;;;;;;6.00;6.00;;;;;34.22;20.94;101714.47;5099496;27;45393;-77
2022/06/14 01:10:09;;;;;;;;;6.67;6.67;;;;;34.18;20.75;101724.81;5098833;27;45322;-77
2022/06/14 01:12:39;;;;;;;;;6.00;6.00;;;;;34.32;20.62;101738.59;5097459;27;45461;-77
2022/06/14 01:15:16;;;;;;;;;6.33;6.00;;;;;34.41;20.64;101738.97;5105601;27;45417;-78
2022/06/14 01:17:47;;;;;;;;;6.00;6.00;;;;;34.27;20.45;101728.81;5119614;27;46244;-77
2022/06/14 01:20:16;;;;;;;;;6.00;6.00;;;;;34.17;20.72;101729.41;5119445;27;45515;-78
2022/06/14 01:22:42;;;;;;;;;6.67;6.67;;;;;34.22;20.56;101742.00;5099970;27;45557;-78
2022/06/14 01:25:08;;;;;;;;;7.00;5.67;;;;;33.98;20.39;101709.56;5098749;27;45363;-77
2022/06/14 01:27:36;;;;;;;;;6.67;6.67;;;;;34.00;20.62;101721.38;5098668;27;45624;-77
2022/06/14 01:30:15;;;;;;;;;5.33;5.00;;;;;34.03;20.55;101726.69;5099047;27;45478;-77
2022/06/14 01:32:51;;;;;;;;;8.33;7.00;;;;;34.01;20.82;101718.53;5099137;27;45376;-77
2022/06/14 01:35:23;;;;;;;;;6.67;4.00;;;;;33.93;20.43;101720.03;5099151;27;45462;-77
2022/06/14 01:37:52;;;;;;;;;5.00;5.00;;;;;33.87;20.74;101712.13;5098312;27;46507;-77
2022/06/14 01:40:20;;;;;;;;;5.00;5.00;;;;;33.60;20.22;101679.88;5098845;27;45424;-77
2022/06/14 01:42:56;;;;;;;;;5.00;5.00;;;;;33.81;20.41;101722.59;5098861;27;45445;-77
2022/06/14 01:45:39;;;;;;;;;7.00;6.00;;;;;33.77;20.79;101720.09;5099106;27;45372;-77
2022/06/14 01:48:35;;;;;;;;;6.00;5.00;;;;;33.63;20.57;101707.19;5096847;27;48152;-77
2022/06/14 01:54:22;;;;;;;;;6.00;6.00;;;;;33.64;20.72;101707.13;5098590;27;45477;-77
2022/06/14 01:56:54;;;;;;;;;5.00;5.00;;;;;33.51;21.07;101689.59;5098741;27;45373;-77
2022/06/14 01:59:35;;;;;;;;;4.33;4.33;;;;;33.51;20.67;101687.72;5097440;27;46222;-77
2022/06/14 02:02:04;;;;;;;;;6.00;6.00;;;;;33.48;21.02;101709.94;5114293;27;46127;-77
2022/06/14 02:04:38;;;;;;;;;5.00;4.00;;;;;33.42;20.83;101695.69;5098693;27;45418;-77
2022/06/14 02:07:24;;;;;;;;;7.33;5.00;;;;;33.65;20.73;101689.59;5098234;27;45482;-77
2022/06/14 02:10:01;;;;;;;;;4.00;4.00;;;;;33.68;20.51;101688.53;5096654;27;47959;-77
2022/06/14 02:12:35;;;;;;;;;7.33;6.33;;;;;33.49;20.78;101661.31;5096802;27;45646;-77
2022/06/14 02:15:39;;;;;;;;;5.00;5.00;;;;;33.47;20.50;101680.69;5098286;27;45472;-77
2022/06/14 02:18:13;;;;;;;;;5.00;5.00;;;;;33.51;20.67;101679.47;5038523;28;45707;-78
2022/06/14 02:20:52;;;;;;;;;5.67;4.67;;;;;33.22;20.94;101658.41;5055024;28;46585;-78
2022/06/14 02:23:19;;;;;;;;;8.67;6.33;;;;;33.29;21.41;101665.31;5055081;28;45574;-78
2022/06/14 02:25:57;;;;;;;;;8.33;5.67;;;;;33.30;21.39;101689.09;5038200;28;45425;-78
2022/06/14 02:28:32;;;;;;;;;4.67;4.67;;;;;33.13;21.12;101666.25;5055375;28;45333;-78
2022/06/14 02:31:03;;;;;;;;;5.33;4.00;;;;;33.29;21.55;101684.56;5037785;28;47941;-79
2022/06/14 02:33:37;;;;;;;;;4.00;4.00;;;;;33.22;21.55;101677.66;5055105;28;45561;-79
2022/06/14 02:36:08;;;;;;;;;5.33;5.00;;;;;33.27;20.90;101672.78;5054953;28;45565;-79
2022/06/14 02:38:42;;;;;;;;;6.00;5.00;;;;;33.20;21.04;101663.13;5055246;28;45421;-79
2022/06/14 02:41:22;;;;;;;;;4.67;4.00;;;;;33.31;21.35;101658.75;5054876;28;45715;-79
2022/06/14 02:43:59;;;;;;;;;5.67;4.00;;;;;33.03;21.29;101618.31;5037908;28;46078;-79
2022/06/14 02:46:42;;;;;;;;;4.33;4.33;;;;;33.18;21.58;101661.34;5055127;28;45457;-79
2022/06/14 02:49:33;;;;;;;;;7.00;6.00;;;;;33.13;21.33;101669.00;5054959;28;45514;-79
2022/06/14 02:52:14;;;;;;;;;5.67;5.67;;;;;32.99;21.79;101645.09;5054151;28;46687;-79
2022/06/14 02:55:00;;;;;;;;;5.00;5.00;;;;;33.00;21.58;101662.50;5078394;27;45453;-79
2022/06/14 02:57:52;;;;;;;;;6.00;6.00;;;;;32.96;21.57;101663.66;5034658;28;45494;-79
2022/06/14 03:00:23;;;;;;;;;6.33;6.00;;;;;32.97;21.46;101670.94;5018146;28;45418;-78
2022/06/14 03:03:03;;;;;;;;;5.33;5.33;;;;;32.81;22.04;101644.41;5034473;28;45700;-79
2022/06/14 03:05:56;;;;;;;;;5.00;4.67;;;;;32.91;21.60;101660.31;5017584;28;45819;-79
2022/06/14 03:08:27;;;;;;;;;3.67;3.67;;;;;32.82;21.92;101645.25;5034785;28;45383;-79
2022/06/14 03:11:16;;;;;;;;;6.67;6.67;;;;;32.56;21.44;101608.34;5034194;28;45443;-79
2022/06/14 03:14:05;;;;;;;;;6.33;5.00;;;;;32.59;21.56;101632.91;5034104;28;45475;-79
2022/06/14 03:16:52;;;;;;;;;4.00;4.00;;;;;32.75;22.18;101672.22;5017732;28;45361;-79
2022/06/14 03:19:17;;;;;;;;;8.00;6.00;;;;;32.74;21.84;101664.97;5034067;28;45490;-79
2022/06/14 03:21:54;;;;;;;;;5.67;5.00;;;;;32.76;22.19;101656.66;5034192;28;45237;-79
2022/06/14 03:24:50;;;;;;;;;5.67;5.67;;;;;32.71;21.47;101651.41;5034235;28;45603;-79
2022/06/14 03:27:33;;;;;;;;;5.00;3.67;;;;;32.63;22.02;101646.34;5013597;28;45369;-79
2022/06/14 03:30:11;;;;;;;;;6.67;5.33;;;;;32.62;21.40;101639.09;5013977;28;45564;-79
2022/06/14 03:33:05;;;;;;;;;5.33;4.67;;;;;32.73;21.57;101652.22;5014416;28;45482;-79
2022/06/14 03:35:41;;;;;;;;;4.33;4.33;;;;;32.69;21.71;101644.22;5069769;28;45371;-79
2022/06/14 03:38:34;;;;;;;;;5.00;4.67;;;;;32.65;21.88;101654.50;5092256;27;45432;-79
2022/06/14 03:40:59;;;;;;;;;7.00;5.33;;;;;32.51;22.27;101638.84;5076444;27;45600;-79
2022/06/14 03:43:25;;;;;;;;;5.00;5.00;;;;;32.48;22.24;101648.16;5076562;27;45400;-79
2022/06/14 03:46:16;;;;;;;;;4.67;4.33;;;;;32.23;22.54;101632.22;5076343;27;45504;-79
2022/06/14 03:48:45;;;;;;;;;7.00;5.00;;;;;32.20;22.06;101642.53;5095859;27;45528;-79
2022/06/14 03:51:31;;;;;;;;;6.33;6.33;;;;;32.08;22.63;101647.72;5096671;27;45587;-78
2022/06/14 03:54:05;;;;;;;;;5.00;4.00;;;;;32.04;22.06;101648.88;5096725;27;45480;-78
2022/06/14 03:56:40;;;;;;;;;4.00;4.00;;;;;31.84;22.99;101652.72;5096506;27;46118;-78
2022/06/14 03:59:40;;;;;;;;;5.33;5.33;;;;;31.75;22.40;101621.22;5096546;27;45339;-78
2022/06/14 04:02:14;;;;;;;;;4.67;3.33;;;;;31.94;22.38;101631.16;5104988;27;45422;-78
2022/06/14 04:05:06;;;;;;;;;3.00;3.00;;;;;32.09;22.74;101643.97;5104314;27;45375;-78
2022/06/14 04:07:52;;;;;;;;;4.67;4.67;;;;;32.14;22.35;101638.28;5096593;27;46549;-78
2022/06/14 04:10:47;;;;;;;;;4.33;4.33;;;;;32.36;22.05;101643.38;5096532;27;45346;-79
2022/06/14 04:13:26;;;;;;;;;3.00;3.00;;;;;32.48;21.84;101642.66;5086985;27;45527;-79
2022/06/14 04:16:08;;;;;;;;;5.00;5.00;;;;;32.41;22.12;101627.53;5096433;27;45530;-77
2022/06/14 04:18:54;;;;;;;;;5.33;5.33;;;;;32.39;22.31;101624.00;5095781;27;45476;-77
2022/06/14 04:21:20;;;;;;;;;5.67;5.67;;;;;32.66;22.23;101654.41;5095063;27;45943;-78
2022/06/14 04:24:19;;;;;;;;;5.67;5.67;;;;;32.54;21.95;101649.66;5096463;27;45478;-78
2022/06/14 04:26:52;;;;;;;;;6.00;6.00;;;;;32.56;22.12;101636.72;5052722;28;45466;-78
2022/06/14 04:29:32;;;;;;;;;3.67;3.67;;;;;32.73;21.65;101641.22;5053231;28;45627;-77
2022/06/14 04:32:03;;;;;;;;;3.67;3.67;;;;;32.80;21.87;101642.63;5052633;28;45422;-78
2022/06/14 04:34:57;;;;;;;;;4.00;4.00;;;;;32.83;21.50;101656.16;5053589;28;45757;-78
2022/06/14 04:37:31;;;;;;;;;4.67;4.67;;;;;32.65;21.48;101649.88;5053050;28;45475;-79
2022/06/14 04:40:07;;;;;;;;;7.00;5.67;;;;;32.51;21.56;101637.97;5052129;28;46713;-79
2022/06/14 04:42:45;;;;;;;;;4.00;4.00;;;;;32.53;21.56;101642.38;5036324;28;45408;-79
2022/06/14 04:45:17;;;;;;;;;3.33;3.33;;;;;32.60;21.88;101645.63;5053264;28;45352;-79
2022/06/14 04:47:53;;;;;;;;;5.67;4.67;;;;;32.63;22.18;101637.22;5035737;28;45381;-79
2022/06/14 04:50:24;;;;;;;;;5.00;4.67;;;;;32.83;21.61;101656.16;5052273;28;46575;-79
2022/06/14 04:52:59;;;;;;;;;5.00;5.00;;;;;32.86;21.55;101641.34;5053192;28;45454;-78
2022/06/14 04:55:35;;;;;;;;;1.00;1.00;;;;;32.99;21.90;101647.84;5033749;28;45507;-76
2022/06/14 04:58:26;;;;;;;;;6.00;6.00;;;;;33.03;21.39;101642.19;5065362;28;45491;-77
2022/06/14 05:01:07;;;;;;;;;5.33;5.33;;;;;33.06;21.27;101609.88;5072461;28;46294;-78
2022/06/14 05:03:39;;;;;;;;;5.33;4.33;;;;;33.21;20.99;101640.13;5083594;27;45284;-78
2022/06/14 05:06:10;;;;;;;;;4.00;3.00;;;;;33.25;21.10;101639.88;5093875;27;45545;-77
2022/06/14 05:08:49;;;;;;;;;6.67;4.67;;;;;33.21;21.25;101645.63;5095490;27;45493;-78
2022/06/14 05:11:40;;;;;;;;;4.33;4.33;;;;;33.14;21.35;101636.91;5094765;27;45708;-78
2022/06/14 05:14:25;;;;;;;;;4.67;4.67;;;;;33.13;21.58;101633.25;5093965;27;45464;-78
2022/06/14 05:17:05;;;;;;;;;4.00;4.00;;;;;33.23;21.41;101622.59;5095311;27;45525;-82
2022/06/14 05:19:49;;;;;;;;;3.67;3.67;;;;;33.38;21.59;101640.00;5095331;27;45358;-77
2022/06/14 05:22:30;;;;;;;;;5.00;5.00;;;;;33.38;21.48;101631.75;5095058;27;46466;-76
2022/06/14 05:24:57;;;;;;;;;3.67;3.67;;;;;33.45;21.35;101633.13;5095804;27;45487;-75
2022/06/14 05:27:35;;;;;;;;;6.33;5.00;;;;;33.55;21.62;101632.53;5095411;27;45545;-76
2022/06/14 05:30:12;;;;;;;;;7.67;4.67;;;;;33.37;21.21;101610.72;5109619;27;45207;-76
2022/06/14 05:32:37;;;;;;;;;8.00;8.00;;;;;33.49;21.62;101634.69;5092001;27;47394;-81
2022/06/14 05:35:19;;;;;;;;;5.67;5.67;;;;;33.54;21.51;101625.25;5094327;27;45397;-80
2022/06/14 05:37:54;;;;;;;;;3.67;3.67;;;;;33.66;21.06;101632.72;5091491;27;45457;-80
2022/06/14 05:40:37;;;;;;;;;7.00;6.00;;;;;33.53;21.15;101610.63;5095060;27;45328;-79
2022/06/14 05:43:11;;;;;;;;;4.00;4.00;;;;;33.73;21.16;101642.34;5093387;27;46024;-75
2022/06/14 05:45:44;;;;;;;;;4.33;3.00;;;;;33.61;21.09;101619.25;5094692;27;45390;-79
2022/06/14 05:48:18;;;;;;;;;3.00;3.00;;;;;33.53;21.18;101602.38;5095231;27;45471;-78
2022/06/14 05:50:50;;;;;;;;;14.33;13.33;;;;;33.83;21.29;101632.53;5095997;27;45478;-83
2022/06/14 05:53:26;;;;;;;;;5.00;5.00;;;;;33.87;20.81;101637.81;5113977;27;46725;-80
2022/06/14 05:55:58;;;;;;;;;4.67;4.00;;;;;33.81;21.08;101645.53;5098455;27;45563;-83
2022/06/14 05:58:31;;;;;;;;;4.00;4.00;;;;;33.84;21.01;101653.56;5100727;27;45524;-81
2022/06/14 06:01:08;;;;;;;;;6.00;5.00;;;;;33.93;20.88;101642.94;5111093;27;45580;-80
2022/06/14 06:03:51;;;;;;;;;5.00;5.00;;;;;33.92;20.96;101633.78;5077931;27;45408;-80
2022/06/14 06:06:26;;;;;;;;;6.00;3.67;;;;;33.85;21.04;101624.16;5077828;27;46011;-80
2022/06/14 06:08:57;;;;;;;;;4.67;4.33;;;;;33.96;20.89;101638.09;5080634;27;45400;-80
2022/06/14 06:11:48;;;;;;;;;5.67;4.67;;;;;33.81;20.81;101608.84;5118389;27;45562;-80
2022/06/14 06:14:30;;;;;;;;;4.00;4.00;;;;;34.05;21.16;101632.97;5116286;27;46390;-77
2022/06/14 06:17:16;;;;;;;;;4.00;4.00;;;;;33.97;20.87;101628.88;5115128;27;45898;-79
2022/06/14 06:20:13;;;;;;;;;4.67;4.67;;;;;33.96;20.60;101638.09;5117004;27;45448;-79
2022/06/14 06:23:23;;;;;;;;;5.67;4.33;;;;;33.96;20.89;101629.84;5115920;27;45607;-79
2022/06/14 06:25:54;;;;;;;;;5.00;4.00;;;;;34.17;20.94;101633.03;5105075;27;46173;-79
2022/06/14 06:28:34;;;;;;;;;4.00;4.00;;;;;34.27;20.72;101630.53;5095418;27;45444;-79
2022/06/14 06:31:08;;;;;;;;;4.00;4.00;;;;;34.42;20.52;101628.66;5097900;27;45474;-79
2022/06/14 06:33:40;;;;;;;;;4.00;4.00;;;;;34.28;20.76;101612.16;5113645;27;45478;-79
2022/06/14 06:36:35;;;;;;;;;5.00;5.00;;;;;34.36;20.52;101624.44;5097725;27;45394;-80
2022/06/14 06:39:07;;;;;;;;;4.00;4.00;;;;;34.52;20.74;101620.63;5096629;27;45387;-80
2022/06/14 06:41:50;;;;;;;;;5.33;5.00;;;;;34.46;20.69;101605.41;5097881;27;45532;-80
2022/06/14 06:44:34;;;;;;;;;7.00;4.33;;;;;34.56;20.63;101618.53;5097402;27;45431;-80
2022/06/14 06:47:19;;;;;;;;;5.67;5.00;;;;;34.55;20.34;101601.13;5097551;27;45471;-80
2022/06/14 06:50:06;;;;;;;;;5.00;4.00;;;;;34.64;20.36;101599.59;5097473;27;45504;-79
2022/06/14 06:52:42;;;;;;;;;5.00;5.00;;;;;34.86;20.12;101623.84;5095968;27;45472;-81
2022/06/14 06:55:14;;;;;;;;;6.67;5.67;;;;;34.68;20.14;101595.66;5097701;27;45556;-80
2022/06/14 06:57:43;;;;;;;;;3.67;3.67;;;;;34.84;20.12;101618.44;5097095;27;45480;-80
2022/06/14 07:00:13;;;;;;;;;4.00;4.00;;;;;34.52;20.12;101593.09;5097761;27;45366;-84
2022/06/14 07:03:31;;;;;;;;;7.00;5.00;;;;;34.69;20.32;101613.97;5096700;27;45605;-83
2022/06/14 07:06:00;;;;;;;;;2.33;2.00;;;;;34.70;20.28;101604.72;5046904;28;45524;-86
2022/06/14 07:08:40;;;;;;;;;4.00;4.00;;;;;34.77;20.48;101616.16;5055100;28;45354;-86
2022/06/14 07:11:12;;;;;;;;;4.00;4.00;;;;;34.82;20.47;101622.28;5037744;28;45468;-86
2022/06/14 07:13:54;;;;;;;;;5.00;4.00;;;;;34.94;20.27;101617.78;5055491;28;45297;-86
2022/06/14 07:16:51;;;;;;;;;4.00;4.00;;;;;34.90;20.21;101611.59;5038170;28;45642;-87
2022/06/14 07:19:19;;;;;;;;;4.33;4.00;;;;;35.06;20.58;101621.53;5054943;28;45485;-86
2022/06/14 07:21:54;;;;;;;;;4.67;4.00;;;;;35.06;20.77;101624.28;5055497;28;45715;-86
2022/06/14 07:24:27;;;;;;;;;5.00;5.00;;;;;35.14;20.01;101614.47;5038365;28;45407;-87
2022/06/14 07:27:00;;;;;;;;;6.00;5.00;;;;;34.82;20.39;101597.47;5054966;28;45633;-86
2022/06/14 07:29:35;;;;;;;;;4.67;4.67;;;;;34.97;20.37;101582.59;5037736;28;47985;-87
2022/06/14 07:32:17;;;;;;;;;6.00;4.67;;;;;35.19;20.15;101581.94;5055190;28;45435;-85
2022/06/14 07:34:44;;;;;;;;;5.33;4.67;;;;;35.19;20.11;101570.91;5054350;28;45348;-85
2022/06/14 07:37:19;;;;;;;;;4.67;3.67;;;;;35.41;20.11;101602.47;5036957;28;45598;-83
2022/06/14 07:39:56;;;;;;;;;5.67;4.00;;;;;35.54;20.01;101600.59;5053749;28;46697;-84
2022/06/14 07:42:39;;;;;;;;;6.00;4.00;;;;;35.60;19.91;101595.59;5063545;27;45866;-84
2022/06/14 07:45:18;;;;;;;;;6.00;4.00;;;;;35.52;20.04;101598.91;5096170;27;45447;-84
2022/06/14 07:47:49;;;;;;;;;5.33;4.33;;;;;35.53;19.71;101590.53;5096897;27;45243;-84
2022/06/14 07:50:40;;;;;;;;;5.00;5.00;;;;;35.67;20.17;101589.50;5095481;27;45511;-84
2022/06/14 07:53:19;;;;;;;;;5.00;4.00;;;;;35.85;19.63;101587.28;5093016;27;45498;-83
2022/06/14 07:55:50;;;;;;;;;3.67;3.33;;;;;35.88;19.92;101586.19;5094330;27;45782;-84
2022/06/14 07:58:24;;;;;;;;;5.67;4.67;;;;;35.89;19.68;101583.28;5094617;27;45470;-84
2022/06/14 08:01:08;;;;;;;;;5.33;4.00;;;;;35.94;19.78;101582.94;5093522;27;48015;-84
2022/06/14 08:03:57;;;;;;;;;7.67;5.00;;;;;35.97;19.63;101584.59;5110630;27;45450;-84
2022/06/14 08:06:32;;;;;;;;;4.00;4.00;;;;;35.85;19.96;101581.75;5111462;27;45496;-83
2022/06/14 08:09:01;;;;;;;;;3.00;3.00;;;;;35.95;20.08;101581.94;5096221;27;45420;-84
2022/06/14 08:11:45;;;;;;;;;5.67;5.00;;;;;36.14;19.93;101581.41;5094353;27;48461;-84
2022/06/14 08:14:20;;;;;;;;;4.00;4.00;;;;;36.10;19.75;101556.91;5096406;27;45356;-84
2022/06/14 08:16:49;;;;;;;;;3.67;3.67;;;;;36.29;19.69;101572.94;5096590;27;45482;-84
2022/06/14 08:19:42;;;;;;;;;5.67;4.00;;;;;36.10;19.64;101557.78;5095025;27;45570;-84
2022/06/14 08:22:15;;;;;;;;;5.67;4.00;;;;;36.10;20.00;101556.91;5088692;27;48040;-83
2022/06/14 08:24:47;;;;;;;;;7.00;4.33;;;;;36.32;19.66;101561.69;5095972;27;45460;-83
2022/06/14 08:27:36;;;;;;;;;2.33;2.33;;;;;36.29;19.12;101550.81;5096541;27;45433;-83
2022/06/14 08:30:10;;;;;;;;;5.00;5.00;;;;;35.99;19.44;101532.88;5094942;27;45636;-83
2022/06/14 08:33:10;;;;;;;;;7.33;4.67;;;;;36.18;19.62;101555.31;5095977;27;46601;-83
2022/06/14 08:35:48;;;;;;;;;4.00;4.00;;;;;36.37;19.21;101542.84;5095961;27;45406;-82
2022/06/14 08:38:31;;;;;;;;;4.00;4.00;;;;;36.52;19.31;101527.84;5094626;27;45432;-83
2022/06/14 08:41:34;;;;;;;;;5.00;5.00;;;;;36.76;19.15;101546.22;5096296;27;45408;-83
2022/06/14 08:44:10;;;;;;;;;4.00;4.00;;;;;36.59;19.48;101535.66;5094795;27;48364;-82
2022/06/14 08:46:41;;;;;;;;;5.67;5.00;;;;;36.73;19.22;101549.25;5095801;27;45507;-83
2022/06/14 08:49:34;;;;;;;;;5.00;5.00;;;;;36.75;19.35;101530.63;5096276;27;45425;-82
2022/06/14 08:52:24;;;;;;;;;6.00;4.67;;;;;36.93;18.87;101541.28;5096123;27;45508;-83
2022/06/14 08:55:01;;;;;;;;;5.67;4.33;;;;;36.93;18.55;101541.28;5111324;27;46134;-83
2022/06/14 08:57:39;;;;;;;;;5.67;5.00;;;;;37.00;19.15;101545.31;5095750;27;45371;-83
2022/06/14 09:00:08;;;;;;;;;4.00;3.00;;;;;36.81;19.19;101521.00;5096314;27;45384;-84
2022/06/14 09:03:01;;;;;;;;;5.00;5.00;;;;;37.09;18.67;101539.03;5095670;27;45400;-84
2022/06/14 09:06:02;;;;;;;;;6.67;4.00;;;;;37.25;18.42;101542.28;5095623;27;46387;-81
2022/06/14 09:08:30;;;;;;;;;6.00;6.00;;;;;37.25;17.53;101544.19;5094970;27;45416;-83
2022/06/14 09:11:22;;;;;;;;;7.00;5.00;;;;;37.12;17.71;101536.00;5095797;27;45351;-77
2022/06/14 09:14:33;;;;;;;;;5.00;5.00;;;;;37.24;18.40;101543.31;5094254;27;45530;-78
2022/06/14 09:17:29;;;;;;;;;7.33;5.00;;;;;37.32;17.53;101539.94;5095496;27;45436;-77
2022/06/14 09:20:03;;;;;;;;;7.00;5.33;;;;;37.42;17.76;101540.91;5095282;27;45370;-77
2022/06/14 09:22:37;;;;;;;;;7.33;5.00;;;;;37.53;17.96;101540.03;5093878;27;45407;-76
2022/06/14 09:25:32;;;;;;;;;5.00;5.00;;;;;37.37;17.91;101531.22;5096541;27;45322;-77
2022/06/14 09:28:17;;;;;;;;;4.33;4.33;;;;;37.57;17.71;101527.69;5097609;27;47339;-80
2022/06/14 09:31:01;;;;;;;;;5.00;4.67;;;;;37.75;18.02;101543.78;5098844;27;45374;-81
2022/06/14 09:33:58;;;;;;;;;6.67;5.33;;;;;37.75;17.51;101539.16;5114881;27;45444;-83
2022/06/14 09:36:26;;;;;;;;;6.00;5.00;;;;;37.89;17.72;101540.75;5098592;27;45622;-79
2022/06/14 09:39:16;;;;;;;;;5.33;5.00;;;;;37.88;17.40;101536.22;5098840;27;45459;-79
2022/06/14 09:42:06;;;;;;;;;6.00;6.00;;;;;37.97;16.93;101536.44;5098595;27;45452;-86
2022/06/14 09:44:57;;;;;;;;;4.00;4.00;;;;;38.02;16.61;101529.50;5114336;27;45333;-79
2022/06/14 09:47:58;;;;;;;;;5.00;5.00;;;;;37.86;17.50;101510.56;5094340;27;45453;-79
2022/06/14 09:50:42;;;;;;;;;4.33;3.67;;;;;37.96;16.61;101524.47;5075655;28;46217;-79
2022/06/14 09:53:10;;;;;;;;;5.00;5.00;;;;;38.03;16.95;101517.41;5075885;28;45366;-79
2022/06/14 09:55:50;;;;;;;;;6.00;5.00;;;;;37.91;17.29;101510.16;5075952;28;45533;-79
2022/06/14 09:58:36;;;;;;;;;2.33;2.33;;;;;38.06;17.22;101531.00;5075862;28;45500;-79
2022/06/14 10:01:22;;;;;;;;;7.00;6.00;;;;;38.09;17.10;101527.09;5075817;28;46056;-79
2022/06/14 10:04:05;;;;;;;;;5.33;5.33;;;;;38.17;17.06;101529.16;5058680;28;45387;-79
2022/06/14 10:06:49;;;;;;;;;6.67;5.33;;;;;38.09;16.09;101519.63;5058515;28;45501;-79
2022/06/14 10:09:45;;;;;;;;;5.00;5.00;;;;;38.15;16.37;101509.91;5075993;28;45639;-79
2022/06/14 10:12:33;;;;;;;;;6.00;6.00;;;;;38.11;16.57;101502.88;5058986;28;48246;-79
2022/06/14 10:15:11;;;;;;;;;5.00;5.00;;;;;38.07;16.97;101504.16;5075381;28;45540;-72
2022/06/14 10:17:54;;;;;;;;;7.00;5.33;;;;;38.21;17.41;101531.56;5075667;28;45450;-71
2022/06/14 10:20:32;;;;;;;;;5.67;5.67;;;;;38.24;17.22;101516.56;5075106;28;45348;-72
2022/06/14 10:23:21;;;;;;;;;7.67;6.00;;;;;38.13;19.00;101523.03;5075374;28;46368;-71
2022/06/14 10:28:54;;;;;;;;;6.00;6.00;;;;;37.39;17.23;101505.19;5098052;27;45485;-70
2022/06/14 10:31:22;;;;;;;;;5.33;5.00;;;;;37.52;18.61;101499.50;5098055;27;45559;-71
2022/06/14 10:33:57;;;;;;;;;4.00;4.00;;;;;37.47;18.50;101498.13;5097812;27;46525;-71
2022/06/14 10:36:47;;;;;;;;;8.00;6.00;;;;;37.39;18.21;101516.25;5112041;27;45426;-70
2022/06/14 10:39:49;;;;;;;;;7.00;5.67;;;;;37.74;19.63;101512.47;5096369;27;45441;-71
2022/06/14 10:42:44;;;;;;;;;7.00;6.00;;;;;37.78;19.86;101499.25;5097809;27;45535;-69
2022/06/14 10:45:44;;;;;;;;;9.33;7.00;;;;;37.90;20.87;101492.63;5097779;27;45460;-74
2022/06/14 10:48:39;;;;;;;;;5.33;4.33;;;;;37.92;19.50;101503.59;5089137;27;45363;-81
2022/06/14 10:51:41;;;;;;;;;9.00;7.00;;;;;37.90;17.60;101489.84;5054432;28;45553;-81
2022/06/14 10:54:36;;;;;;;;;6.33;6.33;;;;;37.67;18.08;101489.03;5054846;28;45746;-81
2022/06/14 10:57:38;;;;;;;;;6.33;5.00;;;;;37.73;18.33;101471.88;5054495;28;45348;-81
2022/06/14 11:00:09;;;;;;;;;7.00;5.00;;;;;37.73;17.82;101476.56;5054637;28;45482;-81
2022/06/14 11:03:02;;;;;;;;;6.00;6.00;;;;;37.88;19.38;101475.28;5054527;28;45412;-81
2022/06/14 11:05:48;;;;;;;;;6.00;6.00;;;;;37.49;17.84;101474.84;5054237;28;45622;-81
2022/06/14 11:08:48;;;;;;;;;6.00;5.67;;;;;37.87;19.40;101467.97;5054500;28;45549;-81
2022/06/14 11:11:50;;;;;;;;;6.00;5.33;;;;;37.93;18.61;101464.69;5054203;28;45447;-81
2022/06/14 11:14:15;;;;;;;;;7.00;7.00;;;;;37.98;18.91;101463.41;5054585;28;45398;-81
2022/06/14 11:16:59;;;;;;;;;5.50;5.00;;;;;38.20;19.00;101471.59;5054117;28;45599;-81
2022/06/14 11:19:35;;;;;;;;;6.00;6.00;;;;;38.31;17.65;101458.72;5053924;28;45716;-81
2022/06/14 11:22:19;;;;;;;;;5.67;5.67;;;;;38.24;17.04;101442.66;5054417;28;45534;-81
2022/06/14 11:24:53;;;;;;;;;9.67;7.67;;;;;38.28;18.31;101443.25;5037147;28;45399;-82
2022/06/14 11:27:39;;;;;;;;;4.00;4.00;;;;;38.11;17.55;101428.06;5072204;27;45425;-81
2022/06/14 11:30:15;;;;;;;;;5.67;5.67;;;;;38.00;17.31;101423.47;5095745;27;47920;-83
2022/06/14 11:32:52;;;;;;;;;6.00;6.00;;;;;38.02;17.63;101439.97;5096483;27;45367;-83
2022/06/14 11:35:29;;;;;;;;;6.00;6.00;;;;;38.19;18.10;101430.19;5095829;27;45402;-83
2022/06/14 11:38:22;;;;;;;;;6.67;6.67;;;;;38.56;18.78;101444.44;5095977;27;45476;-78
2022/06/14 11:40:53;;;;;;;;;7.00;6.00;;;;;38.33;17.80;101423.41;5112288;27;47347;-79
2022/06/14 11:43:38;;;;;;;;;7.00;6.00;;;;;38.63;17.55;101425.34;5096781;27;45452;-79
2022/06/14 11:46:23;;;;;;;;;4.33;4.33;;;;;38.32;16.74;101418.91;5095558;27;45494;-79
2022/06/14 11:49:00;;;;;;;;;5.33;5.33;;;;;38.38;17.00;101426.66;5095810;27;45439;-79
2022/06/14 11:52:10;;;;;;;;;5.00;5.00;;;;;38.42;18.32;101412.38;5095808;27;45212;-77
2022/06/14 11:54:54;;;;;;;;;5.00;5.00;;;;;38.69;17.75;101404.53;5083787;27;45509;-77
2022/06/14 11:57:30;;;;;;;;;5.67;5.00;;;;;38.67;17.20;101376.91;5093904;27;45337;-78
2022/06/14 12:00:03;;;;;;;;;6.00;6.00;;;;;38.84;17.38;101382.84;5094879;27;45506;-77
2022/06/14 12:02:49;;;;;;;;;5.33;5.33;;;;;39.02;17.15;101391.38;5096313;27;45321;-77
2022/06/14 12:05:17;;;;;;;;;8.00;4.00;;;;;39.04;17.92;101390.19;5096519;27;45322;-78
2022/06/14 12:07:57;;;;;;;;;6.33;5.00;;;;;38.97;16.83;101377.91;5102813;27;45451;-78
2022/06/14 12:10:41;;;;;;;;;4.00;4.00;;;;;39.13;16.75;101394.03;5102232;27;45281;-77
2022/06/14 12:13:25;;;;;;;;;2.67;2.67;;;;;39.03;16.83;101382.91;5097542;27;46371;-78
2022/06/14 12:16:15;;;;;;;;;5.67;4.33;;;;;39.05;16.13;101382.78;5107679;27;45327;-78
2022/06/14 12:18:45;;;;;;;;;6.33;6.33;;;;;38.87;16.00;101368.69;5115428;27;45467;-79
2022/06/14 12:21:35;;;;;;;;;6.00;5.00;;;;;39.11;16.27;101385.88;5117150;27;45391;-78
2022/06/14 12:24:07;;;;;;;;;6.00;5.00;;;;;39.31;16.35;101373.94;5115537;27;47410;-79
2022/06/14 12:26:59;;;;;;;;;4.67;4.33;;;;;39.39;15.58;101385.19;5098390;27;45300;-78
2022/06/14 12:29:44;;;;;;;;;6.67;6.33;;;;;39.46;16.00;101358.59;5095166;27;45430;-79